Time,TemperatureF,DewpointF,PressureIn,WindDirection,WindDirectionDegrees,WindSpeedMPH,WindSpeedGustMPH,Humidity,HourlyPrecipIn,Conditions,Clouds,dailyrainin,SoftwareType,DateUTC
2013-05-08 00:02:00,52.0,49.0,30.05,SSW,194,10.0,13.0,90,0.00,,,0.00,,2013-05-08 04:02:00,
2013-05-08 00:12:00,52.0,49.0,30.05,SSW,194,10.0,13.0,90,0.00,,,0.00,,2013-05-08 04:12:00,
2013-05-08 00:22:00,52.0,49.0,30.05,South,189,11.0,16.0,90,0.00,,,0.00,,2013-05-08 04:22:00,
2013-05-08 00:33:00,52.0,49.0,30.05,SSW,198,9.0,15.0,90,0.00,,,0.00,,2013-05-08 04:33:00,
2013-05-08 00:42:00,52.0,49.0,30.05,SSW,198,9.0,15.0,90,0.00,,,0.00,,2013-05-08 04:42:00,
2013-05-08 00:52:00,51.0,48.0,30.06,SSW,193,8.0,14.0,90,0.00,,,0.00,,2013-05-08 04:52:00,
2013-05-08 01:02:00,51.0,48.0,30.06,South,191,5.0,11.0,91,0.00,,,0.00,,2013-05-08 05:02:00,
2013-05-08 01:12:00,51.0,48.0,30.06,South,191,5.0,11.0,91,0.00,,,0.00,,2013-05-08 05:12:00,
2013-05-08 01:22:00,51.0,48.0,30.07,SSW,200,8.0,13.0,91,0.00,,,0.00,,2013-05-08 05:22:00,
2013-05-08 01:32:00,51.0,48.0,30.07,SSW,194,8.0,12.0,91,0.00,,,0.00,,2013-05-08 05:32:00,
2013-05-08 01:42:00,51.0,48.0,30.07,SSW,194,8.0,12.0,91,0.00,,,0.00,,2013-05-08 05:42:00,
2013-05-08 01:52:00,51.0,48.0,30.08,South,190,8.0,11.0,91,0.00,,,0.00,,2013-05-08 05:52:00,
2013-05-08 02:01:00,51.0,48.0,30.08,SSE,168,7.0,11.0,90,0.00,,,0.00,,2013-05-08 06:01:00,
2013-05-08 02:11:00,51.0,48.0,30.08,SSE,168,7.0,11.0,90,0.00,,,0.00,,2013-05-08 06:11:00,
2013-05-08 02:21:00,52.0,49.0,30.09,South,181,7.0,13.0,89,0.00,,,0.00,,2013-05-08 06:21:00,
2013-05-08 02:32:00,52.0,49.0,30.08,SSW,204,7.0,13.0,89,0.00,,,0.00,,2013-05-08 06:32:00,
2013-05-08 02:41:00,52.0,49.0,30.08,SSW,204,7.0,13.0,89,0.00,,,0.00,,2013-05-08 06:41:00,
2013-05-08 02:52:00,52.0,49.0,30.09,SSW,198,8.0,10.0,89,0.00,,,0.00,,2013-05-08 06:52:00,
2013-05-08 03:01:00,52.0,49.0,30.09,South,179,7.0,11.0,89,0.00,,,0.00,,2013-05-08 07:01:00,
2013-05-08 03:11:00,52.0,49.0,30.09,South,179,7.0,11.0,89,0.00,,,0.00,,2013-05-08 07:11:00,
2013-05-08 03:21:00,51.0,48.0,30.09,South,189,9.0,12.0,89,0.00,,,0.00,,2013-05-08 07:21:00,
2013-05-08 03:31:00,52.0,49.0,30.09,SSW,196,10.0,13.0,89,0.00,,,0.00,,2013-05-08 07:31:00,
2013-05-08 03:42:00,52.0,49.0,30.09,SSW,196,10.0,13.0,89,0.00,,,0.00,,2013-05-08 07:42:00,
2013-05-08 03:52:00,52.0,49.0,30.09,SSW,195,8.0,12.0,89,0.00,,,0.00,,2013-05-08 07:52:00,
2013-05-08 04:01:00,52.0,49.0,30.09,SSW,196,9.0,13.0,90,0.00,,,0.00,,2013-05-08 08:01:00,
2013-05-08 04:11:00,52.0,49.0,30.09,SSW,196,9.0,13.0,90,0.00,,,0.00,,2013-05-08 08:11:00,
2013-05-08 04:21:00,51.0,48.0,30.09,SSW,196,10.0,14.0,90,0.00,,,0.00,,2013-05-08 08:21:00,
2013-05-08 04:31:00,51.0,48.0,30.09,SSW,193,8.0,12.0,90,0.00,,,0.00,,2013-05-08 08:31:00,
2013-05-08 04:42:00,51.0,48.0,30.09,SSW,193,8.0,12.0,90,0.00,,,0.00,,2013-05-08 08:42:00,
2013-05-08 04:52:00,51.0,48.0,30.09,South,191,9.0,13.0,90,0.00,,,0.00,,2013-05-08 08:52:00,
2013-05-08 05:01:00,51.0,48.0,30.09,South,191,9.0,14.0,90,0.00,,,0.00,,2013-05-08 09:01:00,
2013-05-08 05:11:00,51.0,48.0,30.09,South,191,9.0,14.0,90,0.00,,,0.00,,2013-05-08 09:11:00,
2013-05-08 05:21:00,51.0,48.0,30.09,SSW,198,8.0,12.0,90,0.00,,,0.00,,2013-05-08 09:21:00,
2013-05-08 05:32:00,51.0,48.0,30.09,SSW,198,9.0,12.0,90,0.00,,,0.00,,2013-05-08 09:32:00,
2013-05-08 05:42:00,51.0,48.0,30.09,SSW,198,9.0,12.0,90,0.00,,,0.00,,2013-05-08 09:42:00,
2013-05-08 05:53:00,51.0,48.0,30.09,SSW,197,9.0,11.0,90,0.00,,,0.00,,2013-05-08 09:53:00,
2013-05-08 06:02:00,51.0,48.0,30.09,SSW,197,7.0,10.0,90,0.00,,,0.00,,2013-05-08 10:02:00,
2013-05-08 06:12:00,51.0,48.0,30.09,SSW,197,7.0,10.0,90,0.00,,,0.00,,2013-05-08 10:12:00,
2013-05-08 06:22:00,51.0,48.0,30.09,SSW,199,7.0,10.0,90,0.00,,,0.00,,2013-05-08 10:22:00,
2013-05-08 06:33:00,51.0,48.0,30.09,SSW,194,7.0,10.0,90,0.00,,,0.00,,2013-05-08 10:33:00,
2013-05-08 06:42:00,51.0,48.0,30.09,SSW,194,7.0,10.0,90,0.00,,,0.00,,2013-05-08 10:42:00,
2013-05-08 06:52:00,51.0,48.0,30.09,SSW,195,6.0,11.0,91,0.00,,,0.00,,2013-05-08 10:52:00,
2013-05-08 07:02:00,51.0,48.0,30.09,SSW,203,7.0,10.0,91,0.00,,,0.00,,2013-05-08 11:02:00,
2013-05-08 07:11:00,51.0,48.0,30.09,SSW,203,7.0,10.0,91,0.00,,,0.00,,2013-05-08 11:11:00,
2013-05-08 07:22:00,51.0,48.0,30.10,SSW,196,7.0,10.0,91,0.00,,,0.00,,2013-05-08 11:22:00,
2013-05-08 07:32:00,51.0,48.0,30.10,SSW,206,6.0,8.0,91,0.00,,,0.00,,2013-05-08 11:32:00,
2013-05-08 07:41:00,51.0,48.0,30.10,SSW,206,6.0,8.0,91,0.00,,,0.00,,2013-05-08 11:41:00,
2013-05-08 07:52:00,51.0,48.0,30.10,SSW,200,5.0,8.0,91,0.00,,,0.00,,2013-05-08 11:52:00,
2013-05-08 08:01:00,51.0,48.0,30.10,South,180,4.0,8.0,91,0.00,,,0.00,,2013-05-08 12:01:00,
2013-05-08 08:11:00,51.0,48.0,30.10,South,180,4.0,8.0,91,0.00,,,0.00,,2013-05-08 12:11:00,
2013-05-08 08:21:00,51.0,48.0,30.10,SSW,206,8.0,11.0,91,0.00,,,0.00,,2013-05-08 12:21:00,
2013-05-08 08:31:00,51.0,48.0,30.10,SSW,202,6.0,8.0,91,0.00,,,0.00,,2013-05-08 12:31:00,
2013-05-08 08:41:00,51.0,48.0,30.10,SSW,202,6.0,8.0,91,0.00,,,0.00,,2013-05-08 12:41:00,
2013-05-08 08:52:00,50.0,47.0,30.11,South,189,4.0,7.0,91,0.00,,,0.00,,2013-05-08 12:52:00,
2013-05-08 09:01:00,51.0,48.0,30.11,South,181,1.0,5.0,91,0.00,,,0.00,,2013-05-08 13:01:00,
2013-05-08 09:11:00,51.0,48.0,30.11,South,181,1.0,5.0,91,0.00,,,0.00,,2013-05-08 13:11:00,
2013-05-08 09:21:00,51.0,48.0,30.11,South,189,0.0,4.0,91,0.00,,,0.00,,2013-05-08 13:21:00,
2013-05-08 09:32:00,51.0,48.0,30.11,South,190,2.0,5.0,90,0.00,,,0.00,,2013-05-08 13:32:00,
2013-05-08 09:42:00,51.0,48.0,30.11,South,190,2.0,5.0,90,0.00,,,0.00,,2013-05-08 13:42:00,
2013-05-08 09:52:00,51.0,48.0,30.11,South,169,1.0,4.0,90,0.00,,,0.00,,2013-05-08 13:52:00,
2013-05-08 10:02:00,51.0,48.0,30.12,SSW,211,3.0,6.0,90,0.00,,,0.00,,2013-05-08 14:02:00,
2013-05-08 10:11:00,51.0,48.0,30.12,SSW,211,3.0,6.0,90,0.00,,,0.00,,2013-05-08 14:11:00,
2013-05-08 10:21:00,51.0,48.0,30.12,SSW,207,3.0,7.0,91,0.00,,,0.00,,2013-05-08 14:21:00,
2013-05-08 10:31:00,51.0,48.0,30.12,SSW,208,4.0,6.0,91,0.00,,,0.00,,2013-05-08 14:31:00,
2013-05-08 10:41:00,51.0,48.0,30.12,SSW,208,4.0,6.0,91,0.00,,,0.00,,2013-05-08 14:41:00,
2013-05-08 10:52:00,51.0,48.0,30.13,SSW,213,3.0,6.0,91,0.00,,,0.00,,2013-05-08 14:52:00,
2013-05-08 11:01:00,51.0,48.0,30.13,SSW,213,0.0,3.0,91,0.00,,,0.00,,2013-05-08 15:01:00,
2013-05-08 11:11:00,51.0,48.0,30.13,SSW,213,0.0,3.0,91,0.00,,,0.00,,2013-05-08 15:11:00,
2013-05-08 11:21:00,51.0,48.0,30.13,SSW,213,1.0,4.0,91,0.00,,,0.00,,2013-05-08 15:21:00,
2013-05-08 11:32:00,51.0,48.0,30.13,South,180,1.0,4.0,91,0.00,,,0.00,,2013-05-08 15:32:00,
2013-05-08 11:42:00,51.0,48.0,30.13,South,180,1.0,4.0,91,0.00,,,0.00,,2013-05-08 15:42:00,
2013-05-08 11:53:00,51.0,48.0,30.14,SSW,199,2.0,4.0,91,0.00,,,0.00,,2013-05-08 15:53:00,
2013-05-08 12:02:00,51.0,48.0,30.14,SW,214,3.0,5.0,91,0.00,,,0.00,,2013-05-08 16:02:00,
2013-05-08 12:12:00,51.0,48.0,30.14,SW,214,3.0,5.0,91,0.00,,,0.00,,2013-05-08 16:12:00,
2013-05-08 12:23:00,52.0,49.0,30.14,SW,214,2.0,4.0,91,0.00,,,0.00,,2013-05-08 16:23:00,
2013-05-08 12:33:00,52.0,49.0,30.14,SSW,206,4.0,6.0,91,0.00,,,0.00,,2013-05-08 16:33:00,
2013-05-08 12:42:00,52.0,49.0,30.14,SSW,206,4.0,6.0,91,0.00,,,0.00,,2013-05-08 16:42:00,
2013-05-08 12:52:00,52.0,49.0,30.15,SSW,209,2.0,5.0,91,0.00,,,0.00,,2013-05-08 16:52:00,
2013-05-08 13:02:00,52.0,49.0,30.15,SSW,209,4.0,6.0,91,0.00,,,0.00,,2013-05-08 17:02:00,
2013-05-08 13:11:00,52.0,49.0,30.15,SSW,209,4.0,6.0,91,0.00,,,0.00,,2013-05-08 17:11:00,
2013-05-08 13:22:00,52.0,49.0,30.15,SSW,209,3.0,5.0,91,0.00,,,0.00,,2013-05-08 17:22:00,
2013-05-08 13:31:00,52.0,49.0,30.15,SSW,209,3.0,5.0,91,0.00,,,0.00,,2013-05-08 17:31:00,
2013-05-08 13:41:00,52.0,49.0,30.15,SSW,209,3.0,5.0,91,0.00,,,0.00,,2013-05-08 17:41:00,
2013-05-08 13:52:00,52.0,49.0,30.16,SSW,209,0.0,3.0,90,0.00,,,0.00,,2013-05-08 17:52:00,
2013-05-08 14:01:00,53.0,50.0,30.16,SSW,209,2.0,4.0,90,0.00,,,0.00,,2013-05-08 18:01:00,
2013-05-08 14:11:00,53.0,50.0,30.16,SSW,209,2.0,4.0,90,0.00,,,0.00,,2013-05-08 18:11:00,
2013-05-08 14:21:00,53.0,50.0,30.16,SSW,200,5.0,6.0,90,0.00,,,0.00,,2013-05-08 18:21:00,
2013-05-08 14:31:00,54.0,51.0,30.16,SSW,213,4.0,6.0,90,0.00,,,0.00,,2013-05-08 18:31:00,
2013-05-08 14:42:00,54.0,51.0,30.16,SSW,213,4.0,6.0,90,0.00,,,0.00,,2013-05-08 18:42:00,
2013-05-08 14:52:00,54.0,51.0,30.17,SSW,212,4.0,6.0,89,0.00,,,0.00,,2013-05-08 18:52:00,
2013-05-08 15:01:00,54.0,51.0,30.17,SSW,212,3.0,4.0,88,0.00,,,0.00,,2013-05-08 19:01:00,
2013-05-08 15:11:00,54.0,51.0,30.17,SSW,212,3.0,4.0,88,0.00,,,0.00,,2013-05-08 19:11:00,
2013-05-08 15:21:00,56.0,52.0,30.17,SSW,213,2.0,3.0,88,0.00,,,0.00,,2013-05-08 19:21:00,
2013-05-08 15:31:00,55.0,52.0,30.17,SSW,213,1.0,3.0,88,0.00,,,0.00,,2013-05-08 19:31:00,
2013-05-08 15:41:00,55.0,52.0,30.17,SSW,213,1.0,3.0,88,0.00,,,0.00,,2013-05-08 19:41:00,
2013-05-08 15:52:00,55.0,52.0,30.17,SSW,213,0.0,3.0,88,0.00,,,0.00,,2013-05-08 19:52:00,
2013-05-08 16:01:00,55.0,51.0,30.17,WSW,239,1.0,2.0,87,0.00,,,0.00,,2013-05-08 20:01:00,
2013-05-08 16:11:00,55.0,51.0,30.17,WSW,239,1.0,2.0,87,0.00,,,0.00,,2013-05-08 20:11:00,
2013-05-08 16:22:00,54.0,50.0,30.17,West,270,1.0,4.0,87,0.00,,,0.00,,2013-05-08 20:22:00,
2013-05-08 16:32:00,54.0,50.0,30.17,WNW,292,2.0,3.0,87,0.00,,,0.00,,2013-05-08 20:32:00,
2013-05-08 16:41:00,53.0,49.0,30.16,NNW,335,2.0,4.0,87,0.00,,,0.00,,2013-05-08 20:41:00,
2013-05-08 16:52:00,53.0,49.0,30.16,NNW,335,2.0,4.0,87,0.00,,,0.00,,2013-05-08 20:52:00,
2013-05-08 17:01:00,54.0,51.0,30.16,NNW,331,2.0,3.0,88,0.00,,,0.00,,2013-05-08 21:01:00,
2013-05-08 17:11:00,54.0,51.0,30.16,NNW,331,2.0,3.0,88,0.00,,,0.00,,2013-05-08 21:11:00,
2013-05-08 17:21:00,54.0,50.0,30.16,NNW,333,3.0,5.0,87,0.00,,,0.00,,2013-05-08 21:21:00,
2013-05-08 17:32:00,54.0,50.0,30.16,NNW,338,6.0,8.0,86,0.00,,,0.00,,2013-05-08 21:32:00,
2013-05-08 17:43:00,54.0,50.0,30.16,NNW,338,6.0,8.0,86,0.00,,,0.00,,2013-05-08 21:43:00,
2013-05-08 17:52:00,54.0,50.0,30.16,NNW,338,6.0,8.0,86,0.00,,,0.00,,2013-05-08 21:52:00,
2013-05-08 18:02:00,55.0,51.0,30.16,NNW,344,7.0,9.0,85,0.00,,,0.00,,2013-05-08 22:02:00,
2013-05-08 18:12:00,55.0,51.0,30.16,NNW,344,7.0,9.0,85,0.00,,,0.00,,2013-05-08 22:12:00,
2013-05-08 18:22:00,55.0,51.0,30.16,NNW,337,6.0,8.0,85,0.00,,,0.00,,2013-05-08 22:22:00,
2013-05-08 18:33:00,56.0,52.0,30.16,NNW,346,6.0,8.0,85,0.00,,,0.00,,2013-05-08 22:33:00,
2013-05-08 18:42:00,56.0,52.0,30.16,North,357,6.0,8.0,85,0.00,,,0.00,,2013-05-08 22:42:00,
2013-05-08 18:52:00,56.0,52.0,30.16,North,357,6.0,8.0,85,0.00,,,0.00,,2013-05-08 22:52:00,
2013-05-08 19:01:00,56.0,52.0,30.15,North,349,7.0,9.0,85,0.00,,,0.00,,2013-05-08 23:01:00,
2013-05-08 19:11:00,56.0,52.0,30.15,North,349,7.0,9.0,85,0.00,,,0.00,,2013-05-08 23:11:00,
2013-05-08 19:22:00,56.0,52.0,30.15,NNW,348,7.0,9.0,85,0.00,,,0.00,,2013-05-08 23:22:00,
2013-05-08 19:32:00,56.0,52.0,30.15,NNW,348,6.0,8.0,85,0.00,,,0.00,,2013-05-08 23:32:00,
2013-05-08 19:42:00,55.0,51.0,30.15,North,357,5.0,8.0,85,0.00,,,0.00,,2013-05-08 23:42:00,
2013-05-08 19:52:00,55.0,51.0,30.15,North,357,5.0,8.0,85,0.00,,,0.00,,2013-05-08 23:52:00,
2013-05-08 20:01:00,55.0,51.0,30.15,North,352,6.0,9.0,86,0.00,,,0.00,,2013-05-09 00:01:00,
2013-05-08 20:11:00,55.0,51.0,30.15,North,352,6.0,9.0,86,0.00,,,0.00,,2013-05-09 00:11:00,
2013-05-08 20:21:00,55.0,51.0,30.15,North,349,6.0,9.0,86,0.00,,,0.00,,2013-05-09 00:21:00,
2013-05-08 20:32:00,55.0,51.0,30.15,North,360,6.0,8.0,86,0.00,,,0.00,,2013-05-09 00:32:00,
2013-05-08 20:42:00,55.0,51.0,30.15,North,358,5.0,8.0,86,0.00,,,0.00,,2013-05-09 00:42:00,
2013-05-08 20:52:00,55.0,51.0,30.15,North,358,5.0,8.0,86,0.00,,,0.00,,2013-05-09 00:52:00,
2013-05-08 21:01:00,54.0,50.0,30.16,North,354,5.0,7.0,86,0.00,,,0.00,,2013-05-09 01:01:00,
2013-05-08 21:11:00,54.0,50.0,30.16,North,354,5.0,7.0,86,0.00,,,0.00,,2013-05-09 01:11:00,
2013-05-08 21:22:00,54.0,50.0,30.16,North,356,6.0,9.0,86,0.00,,,0.00,,2013-05-09 01:22:00,
2013-05-08 21:32:00,54.0,50.0,30.16,NNW,346,6.0,8.0,86,0.00,,,0.00,,2013-05-09 01:32:00,
2013-05-08 21:42:00,54.0,50.0,30.16,North,353,8.0,11.0,86,0.00,,,0.00,,2013-05-09 01:42:00,
2013-05-08 21:52:00,54.0,50.0,30.16,North,353,8.0,11.0,86,0.00,,,0.00,,2013-05-09 01:52:00,
2013-05-08 22:01:00,54.0,50.0,30.16,NNW,344,9.0,12.0,87,0.00,,,0.00,,2013-05-09 02:01:00,
2013-05-08 22:11:00,54.0,50.0,30.16,NNW,344,9.0,12.0,87,0.00,,,0.00,,2013-05-09 02:11:00,
2013-05-08 22:21:00,53.0,49.0,30.16,NNW,346,10.0,12.0,87,0.00,,,0.00,,2013-05-09 02:21:00,
2013-05-08 22:32:00,53.0,49.0,30.16,North,353,10.0,12.0,87,0.00,,,0.00,,2013-05-09 02:32:00,
2013-05-08 22:41:00,53.0,49.0,30.16,North,353,10.0,12.0,87,0.00,,,0.00,,2013-05-09 02:41:00,
2013-05-08 22:52:00,53.0,49.0,30.16,North,353,10.0,12.0,87,0.00,,,0.00,,2013-05-09 02:52:00,
2013-05-08 23:01:00,52.0,48.0,30.17,North,8,8.0,11.0,86,0.00,,,0.00,,2013-05-09 03:01:00,
2013-05-08 23:11:00,52.0,48.0,30.17,North,8,8.0,11.0,86,0.00,,,0.00,,2013-05-09 03:11:00,
2013-05-08 23:21:00,52.0,48.0,30.17,North,2,5.0,9.0,87,0.00,,,0.00,,2013-05-09 03:21:00,
2013-05-08 23:32:00,52.0,48.0,30.17,North,1,7.0,9.0,87,0.00,,,0.00,,2013-05-09 03:32:00,
2013-05-08 23:43:00,52.0,48.0,30.17,North,1,7.0,9.0,87,0.00,,,0.00,,2013-05-09 03:43:00,
2013-05-08 23:53:00,52.0,48.0,30.17,NNW,344,8.0,13.0,87,0.00,,,0.00,,2013-05-09 03:53:00,